| time (UTC) | temp C | wind direction | speed KPH | gust KPH | rain 1hr cm | rain 24hr cm | rain mn cm | humidity % | barometer mb |
| 20260906195153 | 25 | 189 | 6.4 | 9.7 | 0.00 | 0.00 | 0.00 | 90 | 1017.4 |
| 20260906194649 | 25 | 174 | 6.4 | 6.4 | 0.00 | 0.00 | 0.00 | 91 | 1017.5 |
| 20260906194143 | 25 | 168 | 6.4 | 6.4 | 0.00 | 0.00 | 0.00 | 90 | 1017.2 |
| 20260906193638 | 25 | 172 | 3.2 | 4.8 | 0.00 | 0.00 | 0.00 | 90 | 1017.3 |
| 20260906193134 | 26 | 149 | 3.2 | 3.2 | 0.00 | 0.00 | 0.00 | 90 | 1017.3 |
| 20260906192629 | 26 | 177 | 6.4 | 9.7 | 0.00 | 0.00 | 0.00 | 88 | 1017.4 |
| 20260906192128 | 26 | 185 | 6.4 | 6.4 | 0.00 | 0.00 | 0.00 | 88 | 1017.0 |
| 20260906191624 | 26 | 171 | 4.8 | 4.8 | 0.00 | 0.00 | 0.00 | 88 | 1017.2 |
| 20260906191122 | 26 | 137 | 4.8 | 6.4 | 0.00 | 0.00 | 0.00 | 88 | 1017.2 |
| 20260906190617 | 26 | 173 | 6.4 | 6.4 | 0.00 | 0.00 | 0.00 | 86 | 1017.3 |
| 20260906190112 | 26 | 163 | 6.4 | 6.4 | 0.00 | 0.00 | 0.00 | 87 | 1017.6 |
| 20260906185610 | 26 | 160 | 8.0 | 9.7 | 0.00 | 0.00 | 0.00 | 87 | 1017.4 |
| 20260906185109 | 26 | 177 | 8.0 | 9.7 | 0.00 | 0.00 | 0.00 | 88 | 1017.4 |
| 20260906184604 | 26 | 163 | 6.4 | 6.4 | 0.00 | 0.00 | 0.00 | 87 | 1017.3 |
| 20260906184100 | 26 | 162 | 8.0 | 9.7 | 0.00 | 0.00 | 0.00 | 87 | 1017.4 |
| 20260906183556 | 26 | 164 | 6.4 | 9.7 | 0.00 | 0.00 | 0.00 | 89 | 1017.5 |
| 20260906183052 | 26 | 165 | 4.8 | 4.8 | 0.00 | 0.00 | 0.00 | 88 | 1017.6 |
| 20260906182546 | 26 | 166 | 3.2 | 4.8 | 0.00 | 0.00 | 0.00 | 89 | 1017.2 |
| 20260906182043 | 26 | 180 | 4.8 | 4.8 | 0.00 | 0.00 | 0.00 | 88 | 1017.4 |
| 20260906181537 | 25 | 170 | 6.4 | 6.4 | 0.00 | 0.00 | 0.00 | 89 | 1017.6 |
| 20260906181028 | 25 | 155 | 6.4 | 6.4 | 0.00 | 0.00 | 0.00 | 88 | 1017.6 |
| 20260906180522 | 25 | 160 | 6.4 | 6.4 | 0.00 | 0.00 | 0.00 | 88 | 1017.7 |
| 20260906180021 | 26 | 173 | 3.2 | 3.2 | 0.00 | 0.00 | 0.00 | 88 | 1017.5 |
| 20260906175520 | 26 | 168 | 3.2 | 4.8 | 0.00 | 0.00 | 0.00 | 89 | 1017.5 |
| 20260906175015 | 26 | 163 | 3.2 | 3.2 | 0.00 | 0.00 | 0.00 | 90 | 1017.7 |
| 20260906174514 | 25 | 140 | 3.2 | 3.2 | 0.00 | 0.00 | 0.00 | 89 | 1017.8 |
| 20260906174014 | 25 | 153 | 3.2 | 4.8 | 0.00 | 0.00 | 0.00 | 89 | 1017.7 |
| 20260906173509 | 25 | 100 | 3.2 | 3.2 | 0.00 | 0.00 | 0.00 | 89 | 1017.8 |
| 20260906173005 | 25 | 153 | 3.2 | 3.2 | 0.00 | 0.00 | 0.00 | 90 | 1017.8 |
| 20260906172459 | 25 | 170 | 3.2 | 4.8 | 0.00 | 0.00 | 0.00 | 89 | 1017.9 |
| 20260906171954 | 25 | 173 | 1.6 | 3.2 | 0.00 | 0.00 | 0.00 | 88 | 1017.9 |
| 20260906171449 | 25 | 119 | 4.8 | 6.4 | 0.00 | 0.00 | 0.00 | 88 | 1017.7 |
| 20260906170944 | 25 | 167 | 4.8 | 6.4 | 0.00 | 0.00 | 0.00 | 88 | 1018.1 |
| 20260906170441 | 25 | 120 | 6.4 | 9.7 | 0.00 | 0.00 | 0.00 | 89 | 1017.7 |
| 20260906165938 | 25 | 156 | 4.8 | 4.8 | 0.00 | 0.00 | 0.00 | 90 | 1017.8 |
| 20260906165437 | 25 | 70 | 3.2 | 3.2 | 0.00 | 0.00 | 0.00 | 89 | 1018.0 |
| 20260906164932 | 25 | 181 | 4.8 | 6.4 | 0.00 | 0.00 | 0.00 | 89 | 1018.2 |
| 20260906164430 | 25 | 158 | 3.2 | 3.2 | 0.00 | 0.00 | 0.00 | 90 | 1018.3 |
| 20260906163927 | 25 | 149 | 3.2 | 3.2 | 0.00 | 0.00 | 0.00 | 88 | 1018.2 |
| 20260906163423 | 25 | 137 | 1.6 | 3.2 | 0.00 | 0.00 | 0.00 | 89 | 1018.3 |
| 20260906162920 | 25 | 115 | 3.2 | 4.8 | 0.00 | 0.00 | 0.00 | 90 | 1018.4 |
| 20260906162414 | 24 | 168 | 6.4 | 9.7 | 0.00 | 0.00 | 0.00 | 90 | 1018.3 |
| 20260906161909 | 23 | 143 | 3.2 | 4.8 | 0.00 | 0.00 | 0.00 | 91 | 1018.1 |
| 20260906161408 | 23 | 172 | 4.8 | 6.4 | 0.00 | 0.00 | 0.00 | 92 | 1018.2 |
| 20260906160907 | 23 | 111 | 4.8 | 6.4 | 0.00 | 0.00 | 0.00 | 92 | 1018.2 |
| 20260906160401 | 23 | 178 | 4.8 | 4.8 | 0.00 | 0.00 | 0.00 | 92 | 1018.4 |
| 20260906155859 | 23 | 170 | 3.2 | 3.2 | 0.00 | 0.00 | 0.00 | 92 | 1018.5 |
| 20260906155353 | 23 | 168 | 4.8 | 4.8 | 0.00 | 0.00 | 0.00 | 93 | 1018.6 |
| 20260906154849 | 22 | 150 | 4.8 | 6.4 | 0.00 | 0.00 | 0.00 | 92 | 1018.6 |
| 20260906154343 | 23 | 168 | 6.4 | 9.7 | 0.00 | 0.00 | 0.00 | 92 | 1018.5 |
| 20260906153842 | 23 | 127 | 4.8 | 6.4 | 0.00 | 0.00 | 0.00 | 92 | 1018.5 |
| 20260906153336 | 22 | 144 | 4.8 | 4.8 | 0.00 | 0.00 | 0.00 | 93 | 1018.6 |
| 20260906152831 | 22 | 173 | 3.2 | 6.4 | 0.00 | 0.00 | 0.00 | 93 | 1018.6 |
| 20260906152326 | 22 | 155 | 3.2 | 4.8 | 0.00 | 0.00 | 0.00 | 93 | 1018.5 |
| 20260906151825 | 23 | 116 | 4.8 | 4.8 | 0.00 | 0.00 | 0.00 | 91 | 1018.6 |
| 20260906151321 | 23 | 159 | 3.2 | 3.2 | 0.00 | 0.00 | 0.00 | 91 | 1018.6 |
| 20260906150817 | 22 | 177 | 4.8 | 6.4 | 0.00 | 0.00 | 0.00 | 93 | 1019.0 |
| 20260906150312 | 22 | 152 | 3.2 | 3.2 | 0.00 | 0.00 | 0.00 | 94 | 1018.8 |
| 20260906145811 | 22 | 146 | 3.2 | 3.2 | 0.00 | 0.00 | 0.00 | 95 | 1018.9 |
| 20260906145310 | 22 | 178 | 3.2 | 3.2 | 0.00 | 0.00 | 0.00 | 95 | 1018.9 |
| 20260906144805 | 21 | 120 | 1.6 | 3.2 | 0.00 | 0.00 | 0.00 | 96 | 1018.6 |
| 20260906144300 | 21 | 105 | 3.2 | 3.2 | 0.00 | 0.00 | 0.00 | 96 | 1018.9 |
| 20260906143759 | 21 | 89 | 3.2 | 3.2 | 0.00 | 0.00 | 0.00 | 96 | 1018.8 |
| 20260906143257 | 21 | 93 | 0.0 | 0.0 | 0.00 | 0.00 | 0.00 | 97 | 1018.9 |
| 20260906142756 | 21 | 96 | 1.6 | 3.2 | 0.00 | 0.00 | 0.00 | 97 | 1018.9 |
| 20260906142251 | 21 | 89 | 3.2 | 3.2 | 0.00 | 0.00 | 0.00 | 97 | 1019.0 |
| 20260906141750 | 21 | 107 | 1.6 | 1.6 | 0.00 | 0.00 | 0.00 | 97 | 1018.8 |
| 20260906141239 | 21 | 95 | 1.6 | 1.6 | 0.00 | 0.00 | 0.00 | 98 | 1018.9 |
| 20260906140739 | 21 | 17 | 1.6 | 4.8 | 0.00 | 0.00 | 0.00 | 98 | 1018.8 |
| 20260906140234 | 21 | 39 | 0.0 | 0.0 | 0.00 | 0.00 | 0.00 | 98 | 1018.5 |
| 20260906135730 | 21 | 122 | 0.0 | 0.0 | 0.00 | 0.00 | 0.00 | 99 | 1019.0 |
| 20260906135227 | 20 | 80 | 0.0 | 0.0 | 0.00 | 0.00 | 0.00 | 99 | 1018.9 |
| 20260906134722 | 20 | 56 | 1.6 | 3.2 | 0.00 | 0.00 | 0.00 | 99 | 1019.1 |
| 20260906134217 | 20 | 76 | 0.0 | 0.0 | 0.00 | 0.00 | 0.00 | 99 | 1018.6 |
| 20260906133713 | 20 | 119 | 0.0 | 0.0 | 0.00 | 0.00 | 0.00 | 99 | 1018.8 |
| 20260906133208 | 20 | 102 | 1.6 | 3.2 | 0.00 | 0.00 | 0.00 | 99 | 1018.6 |
| 20260906132703 | 20 | 119 | 1.6 | 1.6 | 0.00 | 0.00 | 0.00 | 99 | 1019.0 |
| 20260906132159 | 20 | 116 | 3.2 | 4.8 | 0.00 | 0.00 | 0.00 | 99 | 1018.9 |
| 20260906131654 | 20 | 117 | 0.0 | 1.6 | 0.00 | 0.00 | 0.00 | 99 | 1018.9 |
| 20260906131149 | 20 | 106 | 0.0 | 0.0 | 0.00 | 0.00 | 0.00 | 99 | 1019.0 |
| 20260906130644 | 20 | 165 | 0.0 | 0.0 | 0.00 | 0.00 | 0.00 | 99 | 1018.9 |
| 20260906130139 | 20 | 106 | 0.0 | 0.0 | 0.00 | 0.00 | 0.00 | 99 | 1018.4 |
| 20260906125636 | 20 | 71 | 0.0 | 1.6 | 0.00 | 0.00 | 0.00 | 99 | 1018.5 |
| 20260906125130 | 20 | 168 | 0.0 | 3.2 | 0.00 | 0.00 | 0.00 | 99 | 1018.8 |
| 20260906124626 | 20 | 105 | 1.6 | 3.2 | 0.00 | 0.00 | 0.00 | 99 | 1018.3 |
| 20260906124121 | 20 | 100 | 1.6 | 3.2 | 0.00 | 0.00 | 0.00 | 99 | 1018.4 |
| 20260906123620 | 20 | 96 | 0.0 | 0.0 | 0.00 | 0.00 | 0.00 | 99 | 1018.4 |
| 20260906123115 | 20 | 103 | 3.2 | 3.2 | 0.00 | 0.00 | 0.00 | 99 | 1018.4 |
| 20260906122614 | 20 | 88 | 0.0 | 0.0 | 0.00 | 0.00 | 0.00 | 99 | 1018.5 |
| 20260906122110 | 20 | 98 | 0.0 | 0.0 | 0.00 | 0.00 | 0.00 | 99 | 1018.4 |
| 20260906121606 | 20 | 149 | 1.6 | 3.2 | 0.00 | 0.00 | 0.00 | 99 | 1018.4 |
| 20260906121103 | 20 | 66 | 0.0 | 0.0 | 0.00 | 0.00 | 0.00 | 99 | 1018.4 |
| 20260906120557 | 20 | 69 | 0.0 | 0.0 | 0.00 | 0.00 | 0.00 | 99 | 1018.2 |
| 20260906120055 | 20 | 84 | 0.0 | 1.6 | 0.00 | 0.00 | 0.00 | 99 | 1018.1 |
| 20260906115554 | 19 | 97 | 0.0 | 0.0 | 0.00 | 0.00 | 0.00 | 99 | 1018.1 |
| 20260906115049 | 19 | 165 | 0.0 | 0.0 | 0.00 | 0.00 | 0.00 | 99 | 1018.3 |
| 20260906114544 | 19 | 144 | 0.0 | 0.0 | 0.00 | 0.00 | 0.00 | 99 | 1018.2 |
| 20260906114039 | 19 | 80 | 0.0 | 0.0 | 0.00 | 0.00 | 0.00 | 99 | 1018.1 |
| 20260906113538 | 19 | 105 | 1.6 | 3.2 | 0.00 | 0.00 | 0.00 | 99 | 1018.2 |
| 20260906113033 | 19 | 70 | 0.0 | 0.0 | 0.00 | 0.00 | 0.00 | 99 | 1018.2 |
| 20260906112528 | 19 | 87 | 0.0 | 0.0 | 0.00 | 0.00 | 0.00 | 99 | 1017.9 |
| 20260906112025 | 20 | 97 | 0.0 | 0.0 | 0.00 | 0.00 | 0.00 | 99 | 1017.9 |
| 20260906111524 | 19 | 109 | 0.0 | 0.0 | 0.00 | 0.00 | 0.00 | 99 | 1018.2 |
| 20260906111020 | 19 | 107 | 0.0 | 0.0 | 0.00 | 0.00 | 0.00 | 99 | 1018.0 |
| 20260906110514 | 19 | 84 | 0.0 | 0.0 | 0.00 | 0.00 | 0.00 | 99 | 1018.3 |
| 20260906110008 | 19 | 81 | 0.0 | 0.0 | 0.00 | 0.00 | 0.00 | 99 | 1018.2 |
| 20260906105504 | 19 | 119 | 0.0 | 0.0 | 0.00 | 0.00 | 0.00 | 99 | 1018.1 |
| 20260906104959 | 19 | 133 | 0.0 | 0.0 | 0.00 | 0.00 | 0.00 | 99 | 1018.2 |
| 20260906104458 | 19 | 132 | 0.0 | 0.0 | 0.00 | 0.00 | 0.00 | 99 | 1018.2 |
| 20260906103957 | 19 | 145 | 0.0 | 0.0 | 0.00 | 0.00 | 0.00 | 99 | 1018.4 |
| 20260906103456 | 19 | 146 | 0.0 | 0.0 | 0.00 | 0.00 | 0.00 | 99 | 1018.4 |
| 20260906102951 | 19 | 161 | 0.0 | 0.0 | 0.00 | 0.00 | 0.00 | 99 | 1018.4 |
| 20260906102450 | 19 | 101 | 0.0 | 0.0 | 0.00 | 0.00 | 0.00 | 99 | 1018.2 |
| 20260906101945 | 19 | 100 | 0.0 | 0.0 | 0.00 | 0.00 | 0.00 | 99 | 1018.2 |
| 20260906101440 | 19 | 84 | 0.0 | 0.0 | 0.00 | 0.00 | 0.00 | 99 | 1018.3 |
| 20260906100935 | 19 | 90 | 0.0 | 0.0 | 0.00 | 0.00 | 0.00 | 99 | 1018.3 |
| 20260906100430 | 19 | 85 | 0.0 | 0.0 | 0.00 | 0.00 | 0.00 | 99 | 1018.4 |
| 20260906095924 | 19 | 101 | 0.0 | 0.0 | 0.00 | 0.00 | 0.00 | 99 | 1018.5 |
| 20260906095420 | 19 | 92 | 0.0 | 0.0 | 0.00 | 0.00 | 0.00 | 99 | 1018.3 |
| 20260906094914 | 19 | 95 | 0.0 | 0.0 | 0.00 | 0.00 | 0.00 | 99 | 1018.1 |
| 20260906094408 | 20 | 78 | 0.0 | 0.0 | 0.00 | 0.00 | 0.00 | 99 | 1018.1 |
| 20260906093859 | 20 | 110 | 3.2 | 3.2 | 0.00 | 0.00 | 0.00 | 99 | 1018.2 |
| 20260906093355 | 20 | 55 | 0.0 | 0.0 | 0.00 | 0.00 | 0.00 | 99 | 1018.1 |
| 20260906092855 | 20 | 67 | 0.0 | 0.0 | 0.00 | 0.00 | 0.00 | 99 | 1018.1 |
| 20260906092349 | 20 | 61 | 0.0 | 1.6 | 0.00 | 0.00 | 0.00 | 99 | 1018.1 |
| 20260906091844 | 20 | 80 | 0.0 | 0.0 | 0.00 | 0.00 | 0.00 | 99 | 1017.8 |
| 20260906091340 | 20 | 93 | 0.0 | 0.0 | 0.00 | 0.00 | 0.00 | 99 | 1017.9 |
| 20260906090837 | 20 | 72 | 0.0 | 0.0 | 0.00 | 0.00 | 0.00 | 99 | 1018.0 |
| 20260906090336 | 19 | 74 | 1.6 | 1.6 | 0.00 | 0.00 | 0.00 | 99 | 1017.8 |
| 20260906085830 | 19 | 176 | 0.0 | 1.6 | 0.00 | 0.00 | 0.00 | 99 | 1017.8 |
| 20260906085324 | 19 | 82 | 0.0 | 0.0 | 0.00 | 0.00 | 0.00 | 99 | 1017.7 |
| 20260906084819 | 19 | 61 | 0.0 | 0.0 | 0.00 | 0.00 | 0.00 | 98 | 1017.9 |
| 20260906084318 | 19 | 63 | 0.0 | 0.0 | 0.00 | 0.00 | 0.00 | 98 | 1017.6 |
| 20260906083813 | 20 | 75 | 0.0 | 0.0 | 0.00 | 0.00 | 0.00 | 98 | 1017.7 |
| 20260906083309 | 20 | 88 | 0.0 | 0.0 | 0.00 | 0.00 | 0.00 | 98 | 1017.5 |
| 20260906082803 | 20 | 65 | 0.0 | 0.0 | 0.00 | 0.00 | 0.00 | 98 | 1017.7 |
| 20260906082258 | 20 | 67 | 0.0 | 0.0 | 0.00 | 0.00 | 0.00 | 98 | 1017.5 |
| 20260906081754 | 20 | 100 | 0.0 | 0.0 | 0.00 | 0.00 | 0.00 | 98 | 1017.6 |
| 20260906081250 | 20 | 58 | 0.0 | 0.0 | 0.00 | 0.00 | 0.00 | 98 | 1017.4 |
| 20260906080745 | 20 | 74 | 0.0 | 0.0 | 0.00 | 0.00 | 0.00 | 98 | 1017.4 |
| 20260906080241 | 20 | 85 | 0.0 | 0.0 | 0.00 | 0.00 | 0.00 | 98 | 1017.2 |
| 20260906075735 | 20 | 83 | 0.0 | 0.0 | 0.00 | 0.00 | 0.00 | 98 | 1017.1 |
| 20260906075230 | 20 | 101 | 0.0 | 0.0 | 0.00 | 0.00 | 0.00 | 98 | 1017.2 |
| 20260906074725 | 20 | 176 | 0.0 | 1.6 | 0.00 | 0.00 | 0.00 | 97 | 1017.4 |
| 20260906074224 | 20 | 121 | 1.6 | 3.2 | 0.00 | 0.00 | 0.00 | 97 | 1017.1 |
| 20260906073719 | 20 | 149 | 1.6 | 3.2 | 0.00 | 0.00 | 0.00 | 97 | 1017.0 |
| 20260906073214 | 20 | 139 | 3.2 | 3.2 | 0.00 | 0.00 | 0.00 | 98 | 1017.2 |
| 20260906072710 | 20 | 145 | 0.0 | 0.0 | 0.00 | 0.00 | 0.00 | 97 | 1017.2 |
| 20260906072205 | 20 | 132 | 0.0 | 0.0 | 0.00 | 0.00 | 0.00 | 97 | 1017.5 |
| 20260906071701 | 20 | 128 | 0.0 | 0.0 | 0.00 | 0.00 | 0.00 | 97 | 1017.5 |
| 20260906071201 | 20 | 160 | 0.0 | 0.0 | 0.00 | 0.00 | 0.00 | 97 | 1017.7 |
| 20260906070657 | 20 | 90 | 0.0 | 0.0 | 0.00 | 0.00 | 0.00 | 97 | 1017.8 |
| 20260906070153 | 20 | 90 | 0.0 | 0.0 | 0.00 | 0.00 | 0.00 | 97 | 1017.5 |
| 20260906065652 | 20 | 89 | 0.0 | 0.0 | 0.00 | 0.00 | 0.00 | 97 | 1017.5 |
| 20260906065148 | 20 | 133 | 0.0 | 0.0 | 0.00 | 0.00 | 0.00 | 97 | 1017.7 |
| 20260906064643 | 20 | 143 | 0.0 | 0.0 | 0.00 | 0.00 | 0.00 | 97 | 1017.9 |
| 20260906064138 | 20 | 139 | 0.0 | 0.0 | 0.00 | 0.00 | 0.00 | 97 | 1018.0 |
| 20260906063633 | 20 | 146 | 0.0 | 0.0 | 0.00 | 0.00 | 0.00 | 97 | 1018.0 |
| 20260906063129 | 20 | 130 | 3.2 | 3.2 | 0.00 | 0.00 | 0.00 | 97 | 1018.2 |
| 20260906062625 | 20 | 129 | 0.0 | 0.0 | 0.00 | 0.00 | 0.00 | 97 | 1017.9 |
| 20260906062123 | 20 | 110 | 0.0 | 0.0 | 0.00 | 0.00 | 0.00 | 97 | 1018.2 |
| 20260906061620 | 20 | 141 | 0.0 | 0.0 | 0.00 | 0.00 | 0.00 | 97 | 1018.2 |
| 20260906061119 | 20 | 138 | 0.0 | 0.0 | 0.00 | 0.00 | 0.00 | 97 | 1018.2 |
| 20260906060616 | 20 | 121 | 0.0 | 0.0 | 0.00 | 0.00 | 0.00 | 97 | 1018.2 |
| 20260906060108 | 20 | 122 | 0.0 | 0.0 | 0.00 | 0.00 | 0.00 | 97 | 1018.1 |
| 20260906055603 | 20 | 119 | 0.0 | 0.0 | 0.00 | 0.00 | 0.00 | 97 | 1018.4 |
| 20260906055059 | 20 | 121 | 0.0 | 0.0 | 0.00 | 0.00 | 0.00 | 97 | 1018.3 |
| 20260906054558 | 20 | 107 | 0.0 | 0.0 | 0.00 | 0.00 | 0.00 | 97 | 1018.4 |
| 20260906054054 | 20 | 113 | 0.0 | 0.0 | 0.00 | 0.00 | 0.00 | 97 | 1018.5 |
| 20260906053550 | 20 | 114 | 0.0 | 0.0 | 0.00 | 0.00 | 0.00 | 97 | 1018.3 |
| 20260906053046 | 20 | 115 | 0.0 | 0.0 | 0.00 | 0.00 | 0.00 | 97 | 1018.4 |
| 20260906052541 | 20 | 129 | 0.0 | 0.0 | 0.00 | 0.00 | 0.00 | 97 | 1018.5 |
| 20260906052038 | 20 | 117 | 0.0 | 0.0 | 0.00 | 0.00 | 0.00 | 97 | 1018.4 |
| 20260906051533 | 20 | 145 | 1.6 | 1.6 | 0.00 | 0.00 | 0.00 | 97 | 1018.4 |
| 20260906051028 | 20 | 143 | 1.6 | 3.2 | 0.00 | 0.00 | 0.00 | 97 | 1018.6 |
| 20260906050524 | 20 | 101 | 0.0 | 0.0 | 0.00 | 0.00 | 0.00 | 97 | 1018.5 |
| 20260906050019 | 20 | 77 | 0.0 | 1.6 | 0.00 | 0.00 | 0.00 | 97 | 1018.6 |
| 20260906045517 | 20 | 39 | 0.0 | 0.0 | 0.00 | 0.00 | 0.00 | 97 | 1018.8 |
| 20260906045013 | 20 | 80 | 0.0 | 0.0 | 0.00 | 0.00 | 0.00 | 96 | 1018.6 |
| 20260906044508 | 20 | 73 | 0.0 | 0.0 | 0.00 | 0.00 | 0.00 | 96 | 1018.5 |
| 20260906044004 | 20 | 96 | 1.6 | 1.6 | 0.00 | 0.00 | 0.00 | 96 | 1018.5 |
| 20260906043459 | 20 | 82 | 0.0 | 0.0 | 0.00 | 0.00 | 0.00 | 96 | 1018.5 |
| 20260906042955 | 21 | 63 | 0.0 | 0.0 | 0.00 | 0.00 | 0.00 | 96 | 1018.8 |
| 20260906042454 | 21 | 90 | 0.0 | 0.0 | 0.00 | 0.00 | 0.00 | 95 | 1018.4 |
| 20260906041953 | 21 | 75 | 1.6 | 3.2 | 0.00 | 0.00 | 0.00 | 95 | 1018.5 |
| 20260906041450 | 21 | 95 | 0.0 | 0.0 | 0.00 | 0.00 | 0.00 | 95 | 1018.5 |
| 20260906040949 | 21 | 69 | 0.0 | 0.0 | 0.00 | 0.00 | 0.00 | 94 | 1018.6 |
| 20260906040444 | 21 | 69 | 0.0 | 0.0 | 0.00 | 0.00 | 0.00 | 94 | 1018.3 |
| 20260906035940 | 21 | 64 | 0.0 | 0.0 | 0.00 | 0.00 | 0.00 | 94 | 1018.6 |
| 20260906035435 | 21 | 75 | 0.0 | 0.0 | 0.00 | 0.00 | 0.00 | 94 | 1018.3 |
| 20260906034930 | 21 | 117 | 0.0 | 0.0 | 0.00 | 0.00 | 0.00 | 93 | 1018.3 |
| 20260906034425 | 22 | 121 | 0.0 | 0.0 | 0.00 | 0.00 | 0.00 | 93 | 1018.2 |
| 20260906033921 | 22 | 109 | 0.0 | 0.0 | 0.00 | 0.00 | 0.00 | 93 | 1018.4 |
| 20260906033421 | 22 | 108 | 0.0 | 0.0 | 0.00 | 0.00 | 0.00 | 93 | 1018.1 |
| 20260906032917 | 22 | 131 | 1.6 | 3.2 | 0.00 | 0.00 | 0.00 | 93 | 1018.1 |
| 20260906032413 | 22 | 163 | 1.6 | 1.6 | 0.00 | 0.00 | 0.00 | 93 | 1018.0 |
| 20260906031907 | 22 | 138 | 1.6 | 1.6 | 0.00 | 0.00 | 0.00 | 93 | 1018.1 |
| 20260906031403 | 22 | 134 | 3.2 | 3.2 | 0.00 | 0.00 | 0.00 | 93 | 1017.9 |
| 20260906030858 | 22 | 108 | 0.0 | 0.0 | 0.00 | 0.00 | 0.00 | 93 | 1017.9 |
| 20260906030358 | 22 | 117 | 0.0 | 0.0 | 0.00 | 0.00 | 0.00 | 93 | 1017.9 |
| 20260906025852 | 22 | 112 | 0.0 | 0.0 | 0.00 | 0.00 | 0.00 | 93 | 1018.0 |
| 20260906025346 | 22 | 143 | 0.0 | 0.0 | 0.00 | 0.00 | 0.00 | 93 | 1017.8 |
| 20260906024845 | 22 | 108 | 0.0 | 0.0 | 0.00 | 0.00 | 0.00 | 93 | 1017.5 |
| 20260906024344 | 22 | 77 | 0.0 | 0.0 | 0.00 | 0.00 | 0.00 | 93 | 1017.9 |
| 20260906023840 | 22 | 117 | 1.6 | 1.6 | 0.00 | 0.00 | 0.00 | 93 | 1018.0 |
| 20260906023336 | 22 | 86 | 3.2 | 4.8 | 0.00 | 0.00 | 0.00 | 93 | 1017.7 |
| 20260906022831 | 22 | 99 | 0.0 | 1.6 | 0.00 | 0.00 | 0.00 | 93 | 1017.8 |
| 20260906022326 | 22 | 108 | 0.0 | 0.0 | 0.00 | 0.00 | 0.00 | 93 | 1017.8 |
| 20260906021822 | 22 | 109 | 0.0 | 0.0 | 0.00 | 0.00 | 0.00 | 93 | 1017.9 |
| 20260906021321 | 22 | 127 | 1.6 | 1.6 | 0.00 | 0.00 | 0.00 | 93 | 1017.9 |
| 20260906020821 | 22 | 137 | 0.0 | 0.0 | 0.00 | 0.00 | 0.00 | 93 | 1017.8 |
| 20260906020321 | 22 | 153 | 1.6 | 1.6 | 0.00 | 0.00 | 0.00 | 93 | 1017.7 |
| 20260906015816 | 22 | 111 | 1.6 | 1.6 | 0.00 | 0.00 | 0.00 | 93 | 1017.8 |
| 20260906015315 | 22 | 123 | 0.0 | 1.6 | 0.00 | 0.00 | 0.00 | 93 | 1017.6 |
| 20260906014814 | 22 | 95 | 0.0 | 0.0 | 0.00 | 0.00 | 0.00 | 93 | 1017.9 |
| 20260906014310 | 22 | 84 | 0.0 | 0.0 | 0.00 | 0.00 | 0.00 | 94 | 1017.7 |
| 20260906013806 | 22 | 87 | 0.0 | 0.0 | 0.00 | 0.00 | 0.00 | 93 | 1017.9 |
| 20260906013301 | 22 | 80 | 0.0 | 0.0 | 0.00 | 0.00 | 0.00 | 93 | 1017.8 |
| 20260906012757 | 22 | 82 | 1.6 | 3.2 | 0.00 | 0.00 | 0.00 | 92 | 1018.1 |
| 20260906012252 | 22 | 70 | 0.0 | 0.0 | 0.00 | 0.00 | 0.00 | 92 | 1017.7 |
| 20260906011747 | 22 | 73 | 0.0 | 0.0 | 0.00 | 0.00 | 0.00 | 91 | 1017.6 |
| 20260906011246 | 23 | 72 | 0.0 | 0.0 | 0.00 | 0.00 | 0.00 | 91 | 1017.7 |
| 20260906010741 | 23 | 73 | 0.0 | 0.0 | 0.00 | 0.00 | 0.00 | 90 | 1017.9 |
| 20260906010238 | 23 | 71 | 0.0 | 0.0 | 0.00 | 0.00 | 0.00 | 90 | 1017.8 |
| 20260906005732 | 23 | 48 | 0.0 | 0.0 | 0.00 | 0.00 | 0.00 | 90 | 1017.5 |
| 20260906005231 | 23 | 47 | 0.0 | 0.0 | 0.00 | 0.00 | 0.00 | 89 | 1017.7 |
| 20260906004726 | 23 | 47 | 0.0 | 0.0 | 0.00 | 0.00 | 0.00 | 89 | 1017.6 |
| 20260906004221 | 24 | 47 | 0.0 | 0.0 | 0.00 | 0.00 | 0.00 | 88 | 1017.6 |
| 20260906003715 | 24 | 47 | 0.0 | 0.0 | 0.00 | 0.00 | 0.00 | 87 | 1017.6 |
| 20260906003211 | 25 | 47 | 0.0 | 0.0 | 0.00 | 0.00 | 0.00 | 87 | 1017.3 |
| 20260906002711 | 25 | 77 | 0.0 | 1.6 | 0.00 | 0.00 | 0.00 | 86 | 1017.0 |
| 20260906002206 | 25 | 69 | 0.0 | 0.0 | 0.00 | 0.00 | 0.00 | 86 | 1017.0 |
| 20260906001701 | 25 | 74 | 0.0 | 0.0 | 0.00 | 0.00 | 0.00 | 85 | 1016.6 |
| 20260906001201 | 25 | 106 | 0.0 | 1.6 | 0.00 | 0.00 | 0.00 | 84 | 1016.0 |
| 20260906000657 | 26 | 134 | 3.2 | 3.2 | 0.00 | 0.00 | 0.00 | 82 | 1016.3 |
| 20260906000152 | 26 | 96 | 3.2 | 3.2 | 0.00 | 0.00 | 0.00 | 82 | 1016.0 |
| 20260905235651 | 26 | 116 | 1.6 | 3.2 | 0.00 | 0.00 | 0.00 | 82 | 1015.9 |
| 20260905235146 | 26 | 135 | 0.0 | 0.0 | 0.00 | 0.00 | 0.00 | 82 | 1016.0 |
| 20260905234641 | 26 | 180 | 3.2 | 3.2 | 0.00 | 0.00 | 0.00 | 82 | 1015.9 |
| 20260905234137 | 26 | 106 | 3.2 | 3.2 | 0.00 | 0.00 | 0.00 | 82 | 1015.9 |
| 20260905233632 | 26 | 92 | 1.6 | 3.2 | 0.00 | 0.00 | 0.00 | 81 | 1015.8 |
| 20260905233131 | 26 | 92 | 1.6 | 3.2 | 0.00 | 0.00 | 0.00 | 82 | 1016.0 |
| 20260905232627 | 26 | 90 | 0.0 | 1.6 | 0.00 | 0.00 | 0.00 | 82 | 1015.9 |
| 20260905232118 | 26 | 132 | 1.6 | 1.6 | 0.00 | 0.00 | 0.00 | 82 | 1015.8 |
| 20260905231618 | 26 | 117 | 1.6 | 3.2 | 0.00 | 0.00 | 0.00 | 81 | 1015.6 |
| 20260905231113 | 26 | 140 | 3.2 | 4.8 | 0.00 | 0.00 | 0.00 | 81 | 1015.7 |
| 20260905230609 | 26 | 152 | 3.2 | 4.8 | 0.00 | 0.00 | 0.00 | 81 | 1015.8 |
| 20260905230107 | 26 | 136 | 1.6 | 3.2 | 0.00 | 0.00 | 0.00 | 81 | 1015.8 |
| 20260905225601 | 26 | 131 | 1.6 | 3.2 | 0.00 | 0.00 | 0.00 | 81 | 1015.7 |
| 20260905225055 | 26 | 101 | 3.2 | 4.8 | 0.00 | 0.00 | 0.00 | 81 | 1015.7 |
| 20260905224550 | 26 | 99 | 4.8 | 4.8 | 0.00 | 0.00 | 0.00 | 80 | 1015.8 |
| 20260905224049 | 26 | 96 | 1.6 | 3.2 | 0.00 | 0.00 | 0.00 | 80 | 1015.7 |
| 20260905223547 | 26 | 112 | 6.4 | 12.9 | 0.00 | 0.00 | 0.00 | 78 | 1015.7 |
| 20260905223043 | 27 | 356 | 3.2 | 6.4 | 0.00 | 0.00 | 0.00 | 78 | 1015.6 |
| 20260905222542 | 26 | 114 | 3.2 | 4.8 | 0.00 | 0.00 | 0.00 | 79 | 1015.7 |
| 20260905222038 | 26 | 95 | 6.4 | 12.9 | 0.00 | 0.00 | 0.00 | 79 | 1015.7 |
| 20260905221534 | 26 | 95 | 6.4 | 6.4 | 0.00 | 0.00 | 0.00 | 78 | 1015.8 |
| 20260905221030 | 26 | 96 | 3.2 | 4.8 | 0.00 | 0.00 | 0.00 | 80 | 1015.6 |
| 20260905220525 | 26 | 106 | 9.7 | 16.1 | 0.00 | 0.00 | 0.00 | 79 | 1015.5 |
| 20260905220021 | 26 | 77 | 4.8 | 4.8 | 0.00 | 0.00 | 0.00 | 80 | 1015.8 |
| 20260905215516 | 26 | 106 | 3.2 | 4.8 | 0.00 | 0.00 | 0.00 | 81 | 1015.6 |
| 20260905215012 | 26 | 139 | 3.2 | 3.2 | 0.00 | 0.00 | 0.00 | 80 | 1015.7 |
| 20260905214507 | 26 | 103 | 4.8 | 6.4 | 0.00 | 0.00 | 0.00 | 80 | 1016.0 |
| 20260905214002 | 26 | 129 | 4.8 | 6.4 | 0.00 | 0.00 | 0.00 | 81 | 1016.3 |
| 20260905213458 | 26 | 91 | 3.2 | 3.2 | 0.00 | 0.00 | 0.00 | 81 | 1016.2 |
| 20260905212952 | 25 | 357 | 9.7 | 12.9 | 0.00 | 0.00 | 0.00 | 82 | 1016.4 |
| 20260905212447 | 25 | 98 | 3.2 | 4.8 | 0.00 | 0.00 | 0.00 | 83 | 1016.5 |
| 20260905211946 | 25 | 111 | 4.8 | 6.4 | 0.00 | 0.00 | 0.00 | 84 | 1016.9 |
| 20260905211442 | 25 | 95 | 4.8 | 4.8 | 0.00 | 0.00 | 0.00 | 84 | 1017.1 |
| 20260905210938 | 24 | 170 | 3.2 | 3.2 | 0.00 | 0.00 | 0.00 | 85 | 1017.1 |
| 20260905210433 | 24 | 79 | 4.8 | 6.4 | 0.00 | 0.00 | 0.00 | 85 | 1017.2 |
| 20260905205932 | 25 | 224 | 3.2 | 4.8 | 0.00 | 0.00 | 0.00 | 84 | 1017.2 |
| 20260905205427 | 25 | 86 | 8.0 | 12.9 | 0.00 | 0.00 | 0.00 | 84 | 1017.5 |
| 20260905204925 | 24 | 99 | 4.8 | 6.4 | 0.00 | 0.00 | 0.00 | 85 | 1017.4 |
| 20260905204417 | 24 | 102 | 4.8 | 4.8 | 0.00 | 0.00 | 0.00 | 84 | 1017.8 |
| 20260905203915 | 24 | 82 | 4.8 | 4.8 | 0.00 | 0.00 | 0.00 | 84 | 1017.7 |
| 20260905203411 | 25 | 83 | 4.8 | 11.3 | 0.00 | 0.00 | 0.00 | 84 | 1017.5 |
| 20260905202906 | 25 | 64 | 8.0 | 11.3 | 0.00 | 0.00 | 0.00 | 83 | 1017.6 |
| 20260905202402 | 24 | 70 | 1.6 | 1.6 | 0.00 | 0.00 | 0.00 | 85 | 1017.5 |
| 20260905201856 | 24 | 88 | 11.3 | 16.1 | 0.00 | 0.00 | 0.00 | 84 | 1017.7 |
| 20260905201351 | 25 | 24 | 9.7 | 11.3 | 0.00 | 0.00 | 0.00 | 84 | 1017.8 |
| 20260905200846 | 25 | 114 | 11.3 | 17.7 | 0.00 | 0.00 | 0.00 | 84 | 1017.6 |
| 20260905200342 | 24 | 100 | 4.8 | 6.4 | 0.00 | 0.00 | 0.00 | 85 | 1017.8 |
| 20260905195839 | 24 | 117 | 8.0 | 11.3 | 0.00 | 0.00 | 0.00 | 85 | 1017.9 |